sensor_id;sensor_type;location;lat;lon;timestamp;pressure;altitude;pressure_sealevel;temperature;humidity
8069;BME280;4077;43.702;24.896;2023-04-25T00:00:29;98646.00;;;13.32;100.00
8069;BME280;4077;43.702;24.896;2023-04-25T00:02:54;98643.50;;;13.26;100.00
8069;BME280;4077;43.702;24.896;2023-04-25T00:05:25;98641.59;;;13.37;100.00
8069;BME280;4077;43.702;24.896;2023-04-25T00:07:51;98644.97;;;13.45;100.00
8069;BME280;4077;43.702;24.896;2023-04-25T00:10:17;98631.25;;;13.35;100.00
8069;BME280;4077;43.702;24.896;2023-04-25T00:12:42;98626.91;;;13.39;100.00
8069;BME280;4077;43.702;24.896;2023-04-25T00:15:08;98632.88;;;13.43;100.00
8069;BME280;4077;43.702;24.896;2023-04-25T00:17:34;98619.34;;;13.19;100.00
8069;BME280;4077;43.702;24.896;2023-04-25T00:20:01;98624.41;;;13.31;100.00
8069;BME280;4077;43.702;24.896;2023-04-25T00:22:30;98621.09;;;13.20;100.00
8069;BME280;4077;43.702;24.896;2023-04-25T00:24:55;98615.19;;;13.07;100.00
8069;BME280;4077;43.702;24.896;2023-04-25T00:27:22;98608.13;;;13.22;100.00
8069;BME280;4077;43.702;24.896;2023-04-25T00:29:47;98602.19;;;13.12;100.00
8069;BME280;4077;43.702;24.896;2023-04-25T00:32:13;98595.19;;;13.15;100.00
8069;BME280;4077;43.702;24.896;2023-04-25T00:34:38;98590.34;;;12.93;100.00
8069;BME280;4077;43.702;24.896;2023-04-25T00:37:03;98574.63;;;13.05;100.00
8069;BME280;4077;43.702;24.896;2023-04-25T00:39:29;98573.75;;;13.06;100.00
8069;BME280;4077;43.702;24.896;2023-04-25T00:41:55;98559.19;;;12.97;100.00
8069;BME280;4077;43.702;24.896;2023-04-25T00:44:21;98554.03;;;12.97;100.00
8069;BME280;4077;43.702;24.896;2023-04-25T00:46:48;98564.44;;;12.93;100.00
8069;BME280;4077;43.702;24.896;2023-04-25T00:49:14;98553.97;;;13.00;100.00
8069;BME280;4077;43.702;24.896;2023-04-25T00:51:42;98567.78;;;12.99;100.00
8069;BME280;4077;43.702;24.896;2023-04-25T00:54:13;98562.50;;;13.07;100.00
8069;BME280;4077;43.702;24.896;2023-04-25T00:56:39;98568.22;;;13.33;100.00
8069;BME280;4077;43.702;24.896;2023-04-25T00:59:05;98561.56;;;13.12;100.00
8069;BME280;4077;43.702;24.896;2023-04-25T01:01:31;98570.03;;;13.27;100.00
8069;BME280;4077;43.702;24.896;2023-04-25T01:03:58;98553.91;;;13.05;100.00
8069;BME280;4077;43.702;24.896;2023-04-25T01:06:24;98568.56;;;13.06;100.00
8069;BME280;4077;43.702;24.896;2023-04-25T01:08:51;98571.00;;;13.18;100.00
8069;BME280;4077;43.702;24.896;2023-04-25T01:11:17;98576.06;;;13.29;100.00
8069;BME280;4077;43.702;24.896;2023-04-25T01:13:43;98571.59;;;13.37;100.00
8069;BME280;4077;43.702;24.896;2023-04-25T01:16:08;98575.72;;;13.50;100.00
8069;BME280;4077;43.702;24.896;2023-04-25T01:18:34;98575.06;;;13.39;100.00
8069;BME280;4077;43.702;24.896;2023-04-25T01:21:11;98569.94;;;13.34;100.00
8069;BME280;4077;43.702;24.896;2023-04-25T01:23:39;98574.41;;;13.25;100.00
8069;BME280;4077;43.702;24.896;2023-04-25T01:26:06;98575.16;;;13.33;100.00
8069;BME280;4077;43.702;24.896;2023-04-25T01:28:33;98592.41;;;13.34;100.00
8069;BME280;4077;43.702;24.896;2023-04-25T01:30:59;98592.38;;;13.35;100.00
8069;BME280;4077;43.702;24.896;2023-04-25T01:33:25;98590.59;;;13.37;100.00
8069;BME280;4077;43.702;24.896;2023-04-25T01:35:51;98596.59;;;13.43;100.00
8069;BME280;4077;43.702;24.896;2023-04-25T01:38:17;98587.16;;;13.37;100.00
8069;BME280;4077;43.702;24.896;2023-04-25T01:40:44;98582.78;;;13.42;100.00
8069;BME280;4077;43.702;24.896;2023-04-25T01:43:10;98585.38;;;13.42;100.00
8069;BME280;4077;43.702;24.896;2023-04-25T01:45:41;98572.25;;;13.51;100.00
8069;BME280;4077;43.702;24.896;2023-04-25T01:48:08;98579.03;;;13.61;100.00
8069;BME280;4077;43.702;24.896;2023-04-25T01:50:34;98567.06;;;13.53;100.00
8069;BME280;4077;43.702;24.896;2023-04-25T01:52:59;98565.47;;;13.43;100.00
8069;BME280;4077;43.702;24.896;2023-04-25T01:55:27;98551.63;;;13.45;100.00
8069;BME280;4077;43.702;24.896;2023-04-25T01:57:52;98545.56;;;13.46;100.00
8069;BME280;4077;43.702;24.896;2023-04-25T02:00:18;98535.19;;;13.46;100.00
8069;BME280;4077;43.702;24.896;2023-04-25T02:02:43;98529.09;;;13.49;100.00
8069;BME280;4077;43.702;24.896;2023-04-25T02:05:09;98528.31;;;13.45;100.00
8069;BME280;4077;43.702;24.896;2023-04-25T02:07:34;98509.50;;;13.31;100.00
8069;BME280;4077;43.702;24.896;2023-04-25T02:10:00;98509.66;;;13.19;100.00
8069;BME280;4077;43.702;24.896;2023-04-25T02:12:27;98488.28;;;13.03;100.00
8069;BME280;4077;43.702;24.896;2023-04-25T02:15:01;98508.09;;;13.07;100.00
8069;BME280;4077;43.702;24.896;2023-04-25T02:17:27;98498.53;;;13.12;100.00
8069;BME280;4077;43.702;24.896;2023-04-25T02:19:54;98501.03;;;13.17;100.00
8069;BME280;4077;43.702;24.896;2023-04-25T02:22:19;98507.94;;;13.21;100.00
8069;BME280;4077;43.702;24.896;2023-04-25T02:24:45;98509.69;;;13.15;100.00
8069;BME280;4077;43.702;24.896;2023-04-25T02:27:11;98498.41;;;13.20;100.00
8069;BME280;4077;43.702;24.896;2023-04-25T02:29:36;98496.06;;;13.03;100.00
8069;BME280;4077;43.702;24.896;2023-04-25T02:32:02;98456.66;;;12.81;100.00
8069;BME280;4077;43.702;24.896;2023-04-25T02:34:27;98501.19;;;13.07;100.00
8069;BME280;4077;43.702;24.896;2023-04-25T02:36:53;98511.56;;;13.07;100.00
8069;BME280;4077;43.702;24.896;2023-04-25T02:39:18;98505.41;;;13.14;100.00
8069;BME280;4077;43.702;24.896;2023-04-25T02:41:44;98506.28;;;13.13;100.00
8069;BME280;4077;43.702;24.896;2023-04-25T02:44:09;98507.91;;;13.22;100.00
8069;BME280;4077;43.702;24.896;2023-04-25T02:46:35;98520.81;;;13.27;100.00
8069;BME280;4077;43.702;24.896;2023-04-25T02:49:00;98515.53;;;13.33;100.00
8069;BME280;4077;43.702;24.896;2023-04-25T02:51:25;98511.88;;;13.45;100.00
8069;BME280;4077;43.702;24.896;2023-04-25T02:53:55;98507.44;;;13.51;100.00
8069;BME280;4077;43.702;24.896;2023-04-25T02:56:20;98509.19;;;13.52;100.00
8069;BME280;4077;43.702;24.896;2023-04-25T02:58:46;98508.28;;;13.52;100.00
8069;BME280;4077;43.702;24.896;2023-04-25T03:01:11;98510.91;;;13.50;100.00
8069;BME280;4077;43.702;24.896;2023-04-25T03:03:37;98506.03;;;13.32;100.00
8069;BME280;4077;43.702;24.896;2023-04-25T03:06:02;98509.50;;;13.32;100.00
8069;BME280;4077;43.702;24.896;2023-04-25T03:08:28;98512.94;;;13.33;100.00
8069;BME280;4077;43.702;24.896;2023-04-25T03:10:58;98505.19;;;13.31;100.00
8069;BME280;4077;43.702;24.896;2023-04-25T03:13:23;98523.22;;;13.39;100.00
8069;BME280;4077;43.702;24.896;2023-04-25T03:15:49;98497.38;;;13.33;100.00
8069;BME280;4077;43.702;24.896;2023-04-25T03:18:15;98495.63;;;13.35;100.00
8069;BME280;4077;43.702;24.896;2023-04-25T03:20:40;98512.09;;;13.31;100.00
8069;BME280;4077;43.702;24.896;2023-04-25T03:23:07;98517.88;;;13.48;100.00
8069;BME280;4077;43.702;24.896;2023-04-25T03:25:32;98521.34;;;13.47;100.00
8069;BME280;4077;43.702;24.896;2023-04-25T03:27:58;98510.16;;;13.45;100.00
8069;BME280;4077;43.702;24.896;2023-04-25T03:30:23;98519.78;;;13.38;100.00
8069;BME280;4077;43.702;24.896;2023-04-25T03:32:48;98514.53;;;13.41;100.00
8069;BME280;4077;43.702;24.896;2023-04-25T03:35:14;98507.66;;;13.39;100.00
8069;BME280;4077;43.702;24.896;2023-04-25T03:37:40;98515.56;;;13.30;100.00
8069;BME280;4077;43.702;24.896;2023-04-25T03:40:06;98503.63;;;13.18;100.00
8069;BME280;4077;43.702;24.896;2023-04-25T03:42:31;98520.00;;;13.22;100.00
8069;BME280;4077;43.702;24.896;2023-04-25T03:44:57;98518.28;;;13.22;100.00
8069;BME280;4077;43.702;24.896;2023-04-25T03:47:22;98516.66;;;13.13;100.00
8069;BME280;4077;43.702;24.896;2023-04-25T03:49:48;98514.81;;;13.22;100.00
8069;BME280;4077;43.702;24.896;2023-04-25T03:52:14;98511.41;;;13.17;100.00
8069;BME280;4077;43.702;24.896;2023-04-25T03:54:40;98520.13;;;13.12;100.00
8069;BME280;4077;43.702;24.896;2023-04-25T03:57:05;98498.72;;;12.97;100.00
8069;BME280;4077;43.702;24.896;2023-04-25T03:59:31;98502.13;;;13.02;100.00
8069;BME280;4077;43.702;24.896;2023-04-25T04:01:56;98499.66;;;12.94;100.00
8069;BME280;4077;43.702;24.896;2023-04-25T04:04:22;98513.34;;;13.02;100.00
8069;BME280;4077;43.702;24.896;2023-04-25T04:06:47;98514.03;;;13.15;100.00
8069;BME280;4077;43.702;24.896;2023-04-25T04:09:12;98519.25;;;13.12;100.00
8069;BME280;4077;43.702;24.896;2023-04-25T04:11:38;98514.09;;;13.12;100.00
8069;BME280;4077;43.702;24.896;2023-04-25T04:14:07;98526.16;;;13.13;100.00
8069;BME280;4077;43.702;24.896;2023-04-25T04:16:33;98523.69;;;13.02;100.00
8069;BME280;4077;43.702;24.896;2023-04-25T04:18:58;98517.66;;;13.02;100.00
8069;BME280;4077;43.702;24.896;2023-04-25T04:21:24;98528.69;;;13.18;100.00
8069;BME280;4077;43.702;24.896;2023-04-25T04:23:49;98537.38;;;13.13;100.00
8069;BME280;4077;43.702;24.896;2023-04-25T04:26:15;98538.34;;;13.06;100.00
8069;BME280;4077;43.702;24.896;2023-04-25T04:28:43;98541.66;;;13.16;100.00
8069;BME280;4077;43.702;24.896;2023-04-25T04:31:09;98530.59;;;13.05;100.00
8069;BME280;4077;43.702;24.896;2023-04-25T04:33:35;98540.81;;;13.14;100.00
8069;BME280;4077;43.702;24.896;2023-04-25T04:36:02;98529.56;;;13.15;100.00
8069;BME280;4077;43.702;24.896;2023-04-25T04:38:28;98547.69;;;13.17;100.00
8069;BME280;4077;43.702;24.896;2023-04-25T04:40:54;98535.75;;;13.06;100.00
8069;BME280;4077;43.702;24.896;2023-04-25T04:43:19;98549.41;;;13.18;100.00
8069;BME280;4077;43.702;24.896;2023-04-25T04:45:45;98545.00;;;13.26;100.00
8069;BME280;4077;43.702;24.896;2023-04-25T04:48:10;98549.25;;;13.30;100.00
8069;BME280;4077;43.702;24.896;2023-04-25T04:50:39;98547.50;;;13.33;100.00
8069;BME280;4077;43.702;24.896;2023-04-25T04:53:05;98546.56;;;13.36;100.00
8069;BME280;4077;43.702;24.896;2023-04-25T04:55:31;98548.22;;;13.41;100.00
8069;BME280;4077;43.702;24.896;2023-04-25T04:57:56;98547.19;;;13.53;100.00
8069;BME280;4077;43.702;24.896;2023-04-25T05:00:21;98540.28;;;13.52;100.00
8069;BME280;4077;43.702;24.896;2023-04-25T05:02:47;98548.00;;;13.55;100.00
8069;BME280;4077;43.702;24.896;2023-04-25T05:05:13;98552.44;;;13.49;100.00
8069;BME280;4077;43.702;24.896;2023-04-25T05:07:38;98542.91;;;13.49;100.00
8069;BME280;4077;43.702;24.896;2023-04-25T05:10:04;98545.34;;;13.58;100.00
8069;BME280;4077;43.702;24.896;2023-04-25T05:12:30;98544.50;;;13.58;100.00
8069;BME280;4077;43.702;24.896;2023-04-25T05:14:55;98539.22;;;13.64;100.00
8069;BME280;4077;43.702;24.896;2023-04-25T05:17:21;98540.88;;;13.68;100.00
8069;BME280;4077;43.702;24.896;2023-04-25T05:19:46;98537.44;;;13.67;100.00
8069;BME280;4077;43.702;24.896;2023-04-25T05:22:12;98539.13;;;13.70;100.00
8069;BME280;4077;43.702;24.896;2023-04-25T05:24:37;98531.47;;;13.62;100.00
8069;BME280;4077;43.702;24.896;2023-04-25T05:27:02;98544.25;;;13.75;100.00
8069;BME280;4077;43.702;24.896;2023-04-25T05:29:28;98545.25;;;13.64;100.00
8069;BME280;4077;43.702;24.896;2023-04-25T05:31:53;98543.84;;;13.98;100.00
8069;BME280;4077;43.702;24.896;2023-04-25T05:34:19;98543.19;;;13.85;100.00
8069;BME280;4077;43.702;24.896;2023-04-25T05:36:44;98529.47;;;13.80;100.00
8069;BME280;4077;43.702;24.896;2023-04-25T05:39:14;98545.69;;;13.91;100.00
8069;BME280;4077;43.702;24.896;2023-04-25T05:41:39;98538.06;;;13.82;100.00
8069;BME280;4077;43.702;24.896;2023-04-25T05:44:05;98546.75;;;13.81;100.00
8069;BME280;4077;43.702;24.896;2023-04-25T05:46:30;98545.69;;;13.91;100.00
8069;BME280;4077;43.702;24.896;2023-04-25T05:48:55;98529.50;;;13.77;100.00
8069;BME280;4077;43.702;24.896;2023-04-25T05:51:21;98539.94;;;13.74;100.00
8069;BME280;4077;43.702;24.896;2023-04-25T05:53:46;98543.34;;;13.76;100.00
8069;BME280;4077;43.702;24.896;2023-04-25T05:56:12;98548.44;;;13.82;100.00
8069;BME280;4077;43.702;24.896;2023-04-25T05:58:38;98546.88;;;13.72;100.00
8069;BME280;4077;43.702;24.896;2023-04-25T06:01:03;98530.31;;;13.80;100.00
8069;BME280;4077;43.702;24.896;2023-04-25T06:03:29;98549.84;;;14.00;100.00
8069;BME280;4077;43.702;24.896;2023-04-25T06:05:55;98555.94;;;13.99;100.00
8069;BME280;4077;43.702;24.896;2023-04-25T06:08:20;98548.06;;;14.03;100.00
8069;BME280;4077;43.702;24.896;2023-04-25T06:10:46;98550.59;;;14.08;100.00
8069;BME280;4077;43.702;24.896;2023-04-25T06:13:11;98547.78;;;14.18;100.00
8069;BME280;4077;43.702;24.896;2023-04-25T06:15:38;98559.63;;;14.35;100.00
8069;BME280;4077;43.702;24.896;2023-04-25T06:18:03;98552.50;;;14.46;100.00
8069;BME280;4077;43.702;24.896;2023-04-25T06:20:29;98556.41;;;14.67;100.00
8069;BME280;4077;43.702;24.896;2023-04-25T06:22:54;98558.69;;;14.84;100.00
8069;BME280;4077;43.702;24.896;2023-04-25T06:25:20;98555.88;;;14.93;100.00
8069;BME280;4077;43.702;24.896;2023-04-25T06:27:46;98562.63;;;15.01;100.00
8069;BME280;4077;43.702;24.896;2023-04-25T06:30:11;98546.97;;;15.04;100.00
8069;BME280;4077;43.702;24.896;2023-04-25T06:32:38;98574.28;;;15.24;100.00
8069;BME280;4077;43.702;24.896;2023-04-25T06:35:04;98578.47;;;15.29;100.00
8069;BME280;4077;43.702;24.896;2023-04-25T06:37:30;98573.00;;;15.42;100.00
8069;BME280;4077;43.702;24.896;2023-04-25T06:39:55;98587.53;;;15.50;100.00
8069;BME280;4077;43.702;24.896;2023-04-25T06:42:21;98591.38;;;15.73;100.00
8069;BME280;4077;43.702;24.896;2023-04-25T06:44:46;98594.03;;;16.07;100.00
8069;BME280;4077;43.702;24.896;2023-04-25T06:47:12;98587.00;;;16.43;100.00
8069;BME280;4077;43.702;24.896;2023-04-25T06:49:37;98590.34;;;16.48;100.00
8069;BME280;4077;43.702;24.896;2023-04-25T06:52:03;98611.50;;;17.00;100.00
8069;BME280;4077;43.702;24.896;2023-04-25T06:54:28;98608.09;;;17.27;100.00
8069;BME280;4077;43.702;24.896;2023-04-25T06:56:55;98611.81;;;17.48;100.00
8069;BME280;4077;43.702;24.896;2023-04-25T06:59:21;98612.84;;;17.72;100.00
8069;BME280;4077;43.702;24.896;2023-04-25T07:01:46;98618.97;;;18.24;100.00
8069;BME280;4077;43.702;24.896;2023-04-25T07:04:12;98615.78;;;18.67;100.00
8069;BME280;4077;43.702;24.896;2023-04-25T07:06:37;98611.97;;;18.76;100.00
8069;BME280;4077;43.702;24.896;2023-04-25T07:09:08;98619.75;;;19.02;100.00
8069;BME280;4077;43.702;24.896;2023-04-25T07:11:35;98625.06;;;19.70;100.00
8069;BME280;4077;43.702;24.896;2023-04-25T07:14:00;98620.47;;;19.75;91.66
8069;BME280;4077;43.702;24.896;2023-04-25T07:16:26;98631.69;;;20.00;90.46
8069;BME280;4077;43.702;24.896;2023-04-25T07:18:51;98627.31;;;19.79;88.84
8069;BME280;4077;43.702;24.896;2023-04-25T07:21:17;98620.00;;;19.41;88.58
8069;BME280;4077;43.702;24.896;2023-04-25T07:23:42;98626.09;;;19.65;94.02
8069;BME280;4077;43.702;24.896;2023-04-25T07:26:07;98622.78;;;19.82;96.42
8069;BME280;4077;43.702;24.896;2023-04-25T07:28:33;98631.66;;;20.22;91.46
8069;BME280;4077;43.702;24.896;2023-04-25T07:30:58;98621.94;;;20.24;90.64
8069;BME280;4077;43.702;24.896;2023-04-25T07:33:24;98628.63;;;20.11;90.03
8069;BME280;4077;43.702;24.896;2023-04-25T07:35:49;98630.03;;;20.40;88.45
8069;BME280;4077;43.702;24.896;2023-04-25T07:38:15;98620.75;;;20.53;87.71
8069;BME280;4077;43.702;24.896;2023-04-25T07:40:41;98614.66;;;20.73;83.27
8069;BME280;4077;43.702;24.896;2023-04-25T07:43:06;98622.88;;;20.84;79.90
8069;BME280;4077;43.702;24.896;2023-04-25T07:45:32;98634.19;;;20.86;80.18
8069;BME280;4077;43.702;24.896;2023-04-25T07:47:57;98626.19;;;20.69;73.05
8069;BME280;4077;43.702;24.896;2023-04-25T07:50:23;98620.34;;;20.83;76.27
8069;BME280;4077;43.702;24.896;2023-04-25T07:52:48;98627.13;;;21.07;72.19
8069;BME280;4077;43.702;24.896;2023-04-25T07:55:14;98623.72;;;21.24;75.36
8069;BME280;4077;43.702;24.896;2023-04-25T07:57:39;98623.59;;;21.08;71.29
8069;BME280;4077;43.702;24.896;2023-04-25T08:00:06;98623.22;;;20.76;69.01
8069;BME280;4077;43.702;24.896;2023-04-25T08:02:34;98627.44;;;20.81;70.35
8069;BME280;4077;43.702;24.896;2023-04-25T08:05:00;98624.06;;;20.77;71.26
8069;BME280;4077;43.702;24.896;2023-04-25T08:07:26;98628.38;;;20.59;72.38
8069;BME280;4077;43.702;24.896;2023-04-25T08:09:52;98608.69;;;20.49;74.81
8069;BME280;4077;43.702;24.896;2023-04-25T08:12:17;98622.38;;;20.76;74.73
8069;BME280;4077;43.702;24.896;2023-04-25T08:14:43;98627.78;;;20.92;73.79
8069;BME280;4077;43.702;24.896;2023-04-25T08:17:09;98626.28;;;20.47;70.23
8069;BME280;4077;43.702;24.896;2023-04-25T08:19:34;98635.13;;;20.43;74.18
8069;BME280;4077;43.702;24.896;2023-04-25T08:22:00;98636.91;;;20.42;77.19
8069;BME280;4077;43.702;24.896;2023-04-25T08:24:26;98633.66;;;20.58;71.64
8069;BME280;4077;43.702;24.896;2023-04-25T08:26:51;98639.31;;;20.69;71.32
8069;BME280;4077;43.702;24.896;2023-04-25T08:29:17;98636.50;;;20.53;69.70
8069;BME280;4077;43.702;24.896;2023-04-25T08:31:42;98626.38;;;20.64;72.17
8069;BME280;4077;43.702;24.896;2023-04-25T08:34:07;98636.88;;;20.64;71.52
8069;BME280;4077;43.702;24.896;2023-04-25T08:36:33;98626.97;;;20.51;70.74
8069;BME280;4077;43.702;24.896;2023-04-25T08:38:58;98630.78;;;20.21;69.58
8069;BME280;4077;43.702;24.896;2023-04-25T08:41:24;98631.72;;;20.20;73.15
8069;BME280;4077;43.702;24.896;2023-04-25T08:43:51;98610.59;;;20.03;73.50
8069;BME280;4077;43.702;24.896;2023-04-25T08:46:19;98630.53;;;20.28;69.96
8069;BME280;4077;43.702;24.896;2023-04-25T08:48:46;98631.06;;;20.36;75.01
8069;BME280;4077;43.702;24.896;2023-04-25T08:51:20;98618.25;;;20.50;71.48
8069;BME280;4077;43.702;24.896;2023-04-25T08:53:49;98624.03;;;20.58;72.01
8069;BME280;4077;43.702;24.896;2023-04-25T08:56:16;98624.94;;;20.77;72.93
8069;BME280;4077;43.702;24.896;2023-04-25T08:58:44;98633.38;;;20.84;71.39
8069;BME280;4077;43.702;24.896;2023-04-25T09:01:11;98608.84;;;20.46;71.16
8069;BME280;4077;43.702;24.896;2023-04-25T09:03:36;98628.88;;;20.47;68.20
8069;BME280;4077;43.702;24.896;2023-04-25T09:06:03;98623.03;;;20.40;69.74
8069;BME280;4077;43.702;24.896;2023-04-25T09:08:29;98618.19;;;20.09;72.84
8069;BME280;4077;43.702;24.896;2023-04-25T09:10:55;98630.31;;;19.70;76.36
8069;BME280;4077;43.702;24.896;2023-04-25T09:13:25;98634.25;;;18.86;79.48
8069;BME280;4077;43.702;24.896;2023-04-25T09:15:53;98622.09;;;18.35;94.63
8069;BME280;4077;43.702;24.896;2023-04-25T09:20:51;98589.06;;;17.81;100.00
8069;BME280;4077;43.702;24.896;2023-04-25T09:23:18;98606.34;;;17.85;100.00
8069;BME280;4077;43.702;24.896;2023-04-25T09:25:47;98606.53;;;17.79;100.00
8069;BME280;4077;43.702;24.896;2023-04-25T09:28:13;98599.75;;;17.73;100.00
8069;BME280;4077;43.702;24.896;2023-04-25T09:30:38;98587.47;;;17.47;100.00
8069;BME280;4077;43.702;24.896;2023-04-25T09:33:11;98589.53;;;17.66;100.00
8069;BME280;4077;43.702;24.896;2023-04-25T09:35:38;98598.28;;;18.18;100.00
8069;BME280;4077;43.702;24.896;2023-04-25T09:38:11;98601.59;;;19.66;100.00
8069;BME280;4077;43.702;24.896;2023-04-25T09:40:46;98610.81;;;20.19;100.00
8069;BME280;4077;43.702;24.896;2023-04-25T09:43:25;98610.38;;;19.87;95.72
8069;BME280;4077;43.702;24.896;2023-04-25T09:45:53;98605.94;;;19.22;97.61
8069;BME280;4077;43.702;24.896;2023-04-25T09:48:20;98591.06;;;18.76;94.32
8069;BME280;4077;43.702;24.896;2023-04-25T09:51:06;98603.75;;;18.62;88.44
8069;BME280;4077;43.702;24.896;2023-04-25T09:53:37;98609.13;;;18.32;87.49
8069;BME280;4077;43.702;24.896;2023-04-25T09:56:04;98606.19;;;18.16;89.51
8069;BME280;4077;43.702;24.896;2023-04-25T09:58:30;98612.06;;;17.96;92.16
8069;BME280;4077;43.702;24.896;2023-04-25T10:01:01;98612.09;;;17.95;93.28
8069;BME280;4077;43.702;24.896;2023-04-25T10:03:30;98609.75;;;17.87;91.24
8069;BME280;4077;43.702;24.896;2023-04-25T10:05:58;98597.81;;;18.07;91.76
8069;BME280;4077;43.702;24.896;2023-04-25T10:08:25;98598.59;;;18.09;92.57
8069;BME280;4077;43.702;24.896;2023-04-25T10:10:52;98606.75;;;18.24;96.19
8069;BME280;4077;43.702;24.896;2023-04-25T10:13:18;98599.78;;;18.25;93.98
8069;BME280;4077;43.702;24.896;2023-04-25T10:15:43;98595.19;;;18.07;96.16
8069;BME280;4077;43.702;24.896;2023-04-25T10:18:10;98596.03;;;18.34;99.71
8069;BME280;4077;43.702;24.896;2023-04-25T10:20:36;98584.38;;;18.42;97.51
8069;BME280;4077;43.702;24.896;2023-04-25T10:23:13;98602.06;;;18.61;98.78
8069;BME280;4077;43.702;24.896;2023-04-25T10:25:40;98587.69;;;18.72;94.70
8069;BME280;4077;43.702;24.896;2023-04-25T10:28:06;98599.03;;;18.96;94.23
8069;BME280;4077;43.702;24.896;2023-04-25T10:30:32;98592.66;;;18.80;92.79
8069;BME280;4077;43.702;24.896;2023-04-25T10:32:59;98588.25;;;18.82;90.31
8069;BME280;4077;43.702;24.896;2023-04-25T10:35:29;98588.50;;;18.98;92.02
8069;BME280;4077;43.702;24.896;2023-04-25T10:38:08;98590.44;;;18.69;86.52
8069;BME280;4077;43.702;24.896;2023-04-25T10:40:34;98587.22;;;18.36;88.21
8069;BME280;4077;43.702;24.896;2023-04-25T10:43:36;98580.91;;;18.17;87.52
8069;BME280;4077;43.702;24.896;2023-04-25T10:48:47;98579.47;;;18.83;82.44
8069;BME280;4077;43.702;24.896;2023-04-25T10:51:21;98582.22;;;19.03;80.14
8069;BME280;4077;43.702;24.896;2023-04-25T10:56:25;98588.31;;;19.49;77.83
8069;BME280;4077;43.702;24.896;2023-04-25T10:58:51;98584.25;;;19.64;75.95
8069;BME280;4077;43.702;24.896;2023-04-25T11:01:24;98587.97;;;19.80;77.50
8069;BME280;4077;43.702;24.896;2023-04-25T11:03:57;98582.66;;;19.82;76.70
8069;BME280;4077;43.702;24.896;2023-04-25T11:06:30;98576.50;;;19.83;75.05
8069;BME280;4077;43.702;24.896;2023-04-25T11:09:00;98567.88;;;20.01;74.24
8069;BME280;4077;43.702;24.896;2023-04-25T11:11:26;98557.34;;;20.23;75.03
8069;BME280;4077;43.702;24.896;2023-04-25T11:13:52;98572.38;;;20.60;72.05
8069;BME280;4077;43.702;24.896;2023-04-25T11:16:17;98579.81;;;21.09;67.81
8069;BME280;4077;43.702;24.896;2023-04-25T11:18:43;98571.94;;;21.09;66.03
8069;BME280;4077;43.702;24.896;2023-04-25T11:21:10;98570.09;;;21.11;68.10
8069;BME280;4077;43.702;24.896;2023-04-25T11:23:36;98565.91;;;20.88;66.88
8069;BME280;4077;43.702;24.896;2023-04-25T11:26:03;98582.00;;;20.99;67.16
8069;BME280;4077;43.702;24.896;2023-04-25T11:28:28;98577.53;;;21.01;65.45
8069;BME280;4077;43.702;24.896;2023-04-25T11:30:54;98570.41;;;20.45;64.71
8069;BME280;4077;43.702;24.896;2023-04-25T11:33:23;98573.69;;;19.87;65.81
8069;BME280;4077;43.702;24.896;2023-04-25T11:35:49;98568.84;;;19.56;67.37
8069;BME280;4077;43.702;24.896;2023-04-25T11:38:15;98578.19;;;19.63;71.37
8069;BME280;4077;43.702;24.896;2023-04-25T11:40:40;98573.53;;;19.70;70.83
8069;BME280;4077;43.702;24.896;2023-04-25T11:43:06;98578.22;;;19.84;72.15
8069;BME280;4077;43.702;24.896;2023-04-25T11:45:32;98555.50;;;19.62;73.95
8069;BME280;4077;43.702;24.896;2023-04-25T11:47:58;98565.88;;;19.42;70.96
8069;BME280;4077;43.702;24.896;2023-04-25T11:50:23;98559.00;;;19.39;73.94
8069;BME280;4077;43.702;24.896;2023-04-25T11:52:49;98553.69;;;19.41;70.91
8069;BME280;4077;43.702;24.896;2023-04-25T11:55:20;98555.47;;;19.40;71.04
8069;BME280;4077;43.702;24.896;2023-04-25T11:57:48;98555.72;;;19.34;72.01
8069;BME280;4077;43.702;24.896;2023-04-25T12:00:17;98552.75;;;19.22;70.06
8069;BME280;4077;43.702;24.896;2023-04-25T12:02:50;98549.69;;;19.32;68.72
8069;BME280;4077;43.702;24.896;2023-04-25T12:05:16;98547.75;;;19.16;69.10
8069;BME280;4077;43.702;24.896;2023-04-25T12:07:42;98545.31;;;19.33;70.51
8069;BME280;4077;43.702;24.896;2023-04-25T12:10:13;98547.88;;;19.56;68.56
8069;BME280;4077;43.702;24.896;2023-04-25T12:12:43;98543.75;;;19.73;69.27
8069;BME280;4077;43.702;24.896;2023-04-25T12:15:13;98530.00;;;19.67;66.89
8069;BME280;4077;43.702;24.896;2023-04-25T12:17:41;98532.78;;;19.85;64.13
8069;BME280;4077;43.702;24.896;2023-04-25T12:20:12;98522.94;;;20.10;64.84
8069;BME280;4077;43.702;24.896;2023-04-25T12:22:47;98507.03;;;20.15;62.76
8069;BME280;4077;43.702;24.896;2023-04-25T12:25:20;98500.84;;;19.97;62.29
8069;BME280;4077;43.702;24.896;2023-04-25T12:30:57;98502.06;;;19.88;64.61
8069;BME280;4077;43.702;24.896;2023-04-25T12:33:36;98506.63;;;19.63;63.69
8069;BME280;4077;43.702;24.896;2023-04-25T12:36:04;98499.09;;;19.96;66.45
8069;BME280;4077;43.702;24.896;2023-04-25T12:38:38;98495.31;;;20.03;62.88
8069;BME280;4077;43.702;24.896;2023-04-25T12:41:04;98480.41;;;19.85;61.92
8069;BME280;4077;43.702;24.896;2023-04-25T12:43:29;98488.78;;;19.93;61.30
8069;BME280;4077;43.702;24.896;2023-04-25T12:45:56;98476.78;;;19.45;63.44
8069;BME280;4077;43.702;24.896;2023-04-25T12:48:22;98488.13;;;19.24;63.61
8069;BME280;4077;43.702;24.896;2023-04-25T12:50:49;98496.13;;;18.97;64.82
8069;BME280;4077;43.702;24.896;2023-04-25T12:53:20;98500.97;;;18.84;65.67
8069;BME280;4077;43.702;24.896;2023-04-25T12:55:52;98490.41;;;18.88;67.16
8069;BME280;4077;43.702;24.896;2023-04-25T12:58:18;98488.59;;;18.90;67.39
8069;BME280;4077;43.702;24.896;2023-04-25T13:00:44;98489.59;;;18.85;69.62
8069;BME280;4077;43.702;24.896;2023-04-25T13:03:10;98479.94;;;18.88;69.61
8069;BME280;4077;43.702;24.896;2023-04-25T13:05:37;98495.75;;;18.84;68.73
8069;BME280;4077;43.702;24.896;2023-04-25T13:08:03;98518.81;;;18.73;69.93
8069;BME280;4077;43.702;24.896;2023-04-25T13:10:29;98531.41;;;18.14;73.35
8069;BME280;4077;43.702;24.896;2023-04-25T13:12:54;98548.47;;;17.72;85.37